createdAt,value
2023-11-13T00:00:39.834Z,59.66
2023-11-13T00:03:08.587Z,59.51
2023-11-13T00:05:36.312Z,59.47
2023-11-13T00:08:04.109Z,59.67
2023-11-13T00:10:31.646Z,59.44
2023-11-13T00:12:59.189Z,59.65
2023-11-13T00:15:26.707Z,59.48
2023-11-13T00:17:55.597Z,59.63
2023-11-13T00:20:23.096Z,59.57
2023-11-13T00:22:50.680Z,59.64
2023-11-13T00:25:18.183Z,59.56
2023-11-13T00:27:45.677Z,59.50
2023-11-13T00:30:13.560Z,59.51
2023-11-13T00:32:41.049Z,59.49
2023-11-13T00:35:10.378Z,59.61
2023-11-13T00:37:37.843Z,59.59
2023-11-13T00:40:06.158Z,59.71
2023-11-13T00:42:33.885Z,59.56
2023-11-13T00:45:01.423Z,59.66
2023-11-13T00:47:29.419Z,59.71
2023-11-13T00:49:56.914Z,59.83
2023-11-13T00:52:25.871Z,59.82
2023-11-13T00:54:53.922Z,59.71
2023-11-13T00:57:21.521Z,59.69
2023-11-13T00:59:49.096Z,59.90
2023-11-13T01:02:16.648Z,59.71
2023-11-13T01:04:44.156Z,59.71
2023-11-13T01:07:12.640Z,59.76
2023-11-13T01:09:44.019Z,59.66
2023-11-13T01:12:11.724Z,59.64
2023-11-13T01:14:39.345Z,59.74
2023-11-13T01:17:07.580Z,59.64
2023-11-13T01:19:35.321Z,59.83
2023-11-13T01:22:02.936Z,59.83
2023-11-13T01:24:30.460Z,59.72
2023-11-13T01:26:59.317Z,59.89
2023-11-13T01:29:26.942Z,59.83
2023-11-13T01:31:54.471Z,59.79
2023-11-13T01:34:22.048Z,59.77
2023-11-13T01:36:49.652Z,59.80
2023-11-13T01:39:17.149Z,59.89
2023-11-13T01:41:44.989Z,60.06
2023-11-13T01:44:13.909Z,59.85
2023-11-13T01:46:42.639Z,59.94
2023-11-13T01:49:10.335Z,60.00
2023-11-13T01:51:37.937Z,59.82
2023-11-13T01:54:05.628Z,60.12
2023-11-13T01:56:33.961Z,60.18
2023-11-13T01:59:01.750Z,60.06
2023-11-13T02:01:30.890Z,59.96
2023-11-13T02:03:58.537Z,60.13
2023-11-13T02:06:26.130Z,59.95
2023-11-13T02:08:53.643Z,60.14
2023-11-13T02:11:22.492Z,60.06
2023-11-13T02:13:52.701Z,59.98
2023-11-13T02:16:20.359Z,60.12
2023-11-13T02:18:49.506Z,60.12
2023-11-13T02:21:17.097Z,60.13
2023-11-13T02:23:45.973Z,60.00
2023-11-13T02:26:15.349Z,60.05
2023-11-13T02:28:42.919Z,60.25
2023-11-13T02:31:10.565Z,60.05
2023-11-13T02:33:38.159Z,60.06
2023-11-13T02:36:05.966Z,59.95
2023-11-13T02:38:34.258Z,60.17
2023-11-13T02:41:03.132Z,60.13
2023-11-13T02:43:30.716Z,60.04
2023-11-13T02:45:58.275Z,60.23
2023-11-13T02:48:25.807Z,60.06
2023-11-13T02:50:54.193Z,60.16
2023-11-13T02:53:21.871Z,60.17
2023-11-13T02:55:50.572Z,60.11
2023-11-13T02:58:19.458Z,60.14
2023-11-13T03:00:48.446Z,60.23
2023-11-13T03:03:16.181Z,60.04
2023-11-13T03:05:43.808Z,60.14
2023-11-13T03:08:12.386Z,60.37
2023-11-13T03:10:40.242Z,60.17
2023-11-13T03:13:07.858Z,60.22
2023-11-13T03:15:36.742Z,60.20
2023-11-13T03:18:04.829Z,60.33
2023-11-13T03:20:32.421Z,60.49
2023-11-13T03:22:59.913Z,60.46
2023-11-13T03:25:27.483Z,60.25
2023-11-13T03:27:55.118Z,60.31
2023-11-13T03:30:22.622Z,60.37
2023-11-13T03:32:51.510Z,60.34
2023-11-13T03:35:19.257Z,60.54
2023-11-13T03:37:47.729Z,60.45
2023-11-13T03:40:15.303Z,60.46
2023-11-13T03:42:42.838Z,60.42
2023-11-13T03:45:10.603Z,60.53
2023-11-13T03:47:39.629Z,60.39
2023-11-13T03:50:09.453Z,60.38
2023-11-13T03:52:37.074Z,60.52
2023-11-13T03:55:04.764Z,60.48
2023-11-13T03:57:32.299Z,60.61
2023-11-13T03:59:59.805Z,60.49
2023-11-13T04:02:27.335Z,60.52
2023-11-13T04:04:54.810Z,60.61
2023-11-13T04:07:25.367Z,60.58
2023-11-13T04:09:52.960Z,60.60
2023-11-13T04:12:20.529Z,60.73
2023-11-13T04:14:48.046Z,60.51
2023-11-13T04:17:16.111Z,60.51
2023-11-13T04:19:43.648Z,60.56
2023-11-13T04:22:11.582Z,60.55
2023-11-13T04:24:40.438Z,60.67
2023-11-13T04:27:07.985Z,60.67
2023-11-13T04:29:35.491Z,60.43
2023-11-13T04:32:03.084Z,60.40
2023-11-13T04:34:30.645Z,60.51
2023-11-13T04:36:58.287Z,60.44
2023-11-13T04:39:25.774Z,60.54
2023-11-13T04:41:54.611Z,60.64
2023-11-13T04:44:22.069Z,60.43
2023-11-13T04:46:50.332Z,60.62
2023-11-13T04:49:17.976Z,60.73
2023-11-13T04:51:45.504Z,60.62
2023-11-13T04:54:13.835Z,60.58
2023-11-13T04:56:41.418Z,60.67
2023-11-13T04:59:12.326Z,60.43
2023-11-13T05:01:40.808Z,60.63
2023-11-13T05:04:08.703Z,60.68
2023-11-13T05:06:36.803Z,60.69
2023-11-13T05:09:05.306Z,60.65
2023-11-13T05:11:33.008Z,60.71
2023-11-13T05:14:00.508Z,60.59
2023-11-13T05:16:30.467Z,60.80
2023-11-13T05:18:58.261Z,60.77
2023-11-13T05:21:25.809Z,60.62
2023-11-13T05:23:53.295Z,60.81
2023-11-13T05:26:20.956Z,60.81
2023-11-13T05:28:48.462Z,60.63
2023-11-13T05:31:16.502Z,60.76
2023-11-13T05:33:45.476Z,61.10
2023-11-13T05:36:12.965Z,60.70
2023-11-13T05:38:42.623Z,60.91
2023-11-13T05:41:10.723Z,60.91
2023-11-13T05:43:38.286Z,60.90
2023-11-13T05:46:06.030Z,60.95
2023-11-13T05:48:33.618Z,60.95
2023-11-13T05:51:02.482Z,60.97
2023-11-13T05:53:29.960Z,60.95
2023-11-13T05:55:58.072Z,61.13
2023-11-13T05:58:25.818Z,61.04
2023-11-13T06:00:53.535Z,60.94
2023-11-13T06:03:21.105Z,60.92
2023-11-13T06:05:48.901Z,61.00
2023-11-13T06:08:19.541Z,60.94
2023-11-13T06:10:47.059Z,61.12
2023-11-13T06:13:14.849Z,60.87
2023-11-13T06:15:42.610Z,61.02
2023-11-13T06:18:10.561Z,61.09
2023-11-13T06:20:38.064Z,60.99
2023-11-13T06:23:05.578Z,61.02
2023-11-13T06:25:34.936Z,61.06
2023-11-13T06:28:02.464Z,61.07
2023-11-13T06:30:29.958Z,61.08
2023-11-13T06:32:57.500Z,61.13
2023-11-13T06:35:25.004Z,61.10
2023-11-13T06:37:52.507Z,61.10
2023-11-13T06:40:20.085Z,61.13
2023-11-13T06:42:48.953Z,60.89
2023-11-13T06:45:17.342Z,61.32
2023-11-13T06:47:47.287Z,61.07
2023-11-13T06:50:15.443Z,61.29
2023-11-13T06:52:42.949Z,61.10
2023-11-13T06:55:14.340Z,61.22
2023-11-13T06:57:43.069Z,61.14
2023-11-13T07:00:12.555Z,61.10
2023-11-13T07:02:43.091Z,61.36
2023-11-13T07:05:12.063Z,61.37
2023-11-13T07:07:39.755Z,61.23
2023-11-13T07:10:08.190Z,61.28
2023-11-13T07:12:36.839Z,61.31
2023-11-13T07:15:05.181Z,61.45
2023-11-13T07:17:34.143Z,61.41
2023-11-13T07:20:03.476Z,61.34
2023-11-13T07:22:32.336Z,61.38
2023-11-13T07:24:59.878Z,61.41
2023-11-13T07:27:28.058Z,61.28
2023-11-13T07:29:55.988Z,61.33
2023-11-13T07:32:26.114Z,61.32
2023-11-13T07:34:55.576Z,61.44
2023-11-13T07:37:23.710Z,61.44
2023-11-13T07:39:52.200Z,61.42
2023-11-13T07:42:19.799Z,61.37
2023-11-13T07:44:50.410Z,61.31
2023-11-13T07:47:18.244Z,61.42
2023-11-13T07:49:46.236Z,61.37
2023-11-13T07:52:16.393Z,61.40
2023-11-13T07:54:44.229Z,61.38
2023-11-13T07:57:12.425Z,61.41
2023-11-13T07:59:39.941Z,61.27
2023-11-13T08:02:10.442Z,61.36
2023-11-13T08:04:38.913Z,61.24
2023-11-13T08:07:13.385Z,61.33
2023-11-13T08:09:46.262Z,61.44
2023-11-13T08:12:14.491Z,61.57
2023-11-13T08:14:42.797Z,61.37
2023-11-13T08:17:10.456Z,61.42
2023-11-13T08:19:38.189Z,61.47
2023-11-13T08:22:06.110Z,61.47
2023-11-13T08:24:33.973Z,61.47
2023-11-13T08:27:04.961Z,61.47
2023-11-13T08:29:34.074Z,61.48
2023-11-13T08:32:02.270Z,61.60
2023-11-13T08:34:29.907Z,61.53
2023-11-13T08:36:58.832Z,61.45
2023-11-13T08:39:29.499Z,61.70
2023-11-13T08:41:57.607Z,61.35
2023-11-13T08:44:26.864Z,61.50
2023-11-13T08:46:56.190Z,61.61
2023-11-13T08:49:24.186Z,61.59
2023-11-13T08:51:51.749Z,61.62
2023-11-13T08:54:19.838Z,61.61
2023-11-13T08:56:52.755Z,61.51
2023-11-13T08:59:20.256Z,61.83
2023-11-13T09:01:49.219Z,61.58
2023-11-13T09:04:16.875Z,61.66
2023-11-13T09:06:46.522Z,61.71
2023-11-13T09:09:14.681Z,61.63
2023-11-13T09:11:42.703Z,61.79
2023-11-13T09:14:11.266Z,61.75
2023-11-13T09:16:39.982Z,61.63
2023-11-13T09:19:09.421Z,61.79
2023-11-13T09:21:37.082Z,61.76
2023-11-13T09:24:06.206Z,61.77
2023-11-13T09:26:33.704Z,61.77
2023-11-13T09:29:01.200Z,61.86
2023-11-13T09:31:28.708Z,61.69
2023-11-13T09:33:56.234Z,61.79
2023-11-13T09:36:26.476Z,61.63
2023-11-13T09:38:54.884Z,61.67
2023-11-13T09:41:25.093Z,61.76
2023-11-13T09:43:53.214Z,61.79
2023-11-13T09:46:21.686Z,61.79
2023-11-13T09:48:52.241Z,61.79
2023-11-13T09:51:27.656Z,61.74
2023-11-13T09:54:00.335Z,61.80
2023-11-13T09:56:30.654Z,61.81
2023-11-13T09:58:58.840Z,61.66
2023-11-13T10:01:26.494Z,61.79
2023-11-13T10:03:56.274Z,61.82
2023-11-13T10:06:24.816Z,61.85
2023-11-13T10:08:54.561Z,61.92
2023-11-13T10:11:27.294Z,61.90
2023-11-13T10:13:54.807Z,61.88
2023-11-13T10:16:24.321Z,61.89
2023-11-13T10:18:52.024Z,61.95
2023-11-13T10:21:23.518Z,62.05
2023-11-13T10:23:51.011Z,61.99
2023-11-13T10:26:28.883Z,62.13
2023-11-13T10:28:56.364Z,62.04
2023-11-13T10:31:25.177Z,62.01
2023-11-13T10:34:01.846Z,62.32
2023-11-13T10:36:32.739Z,62.05
2023-11-13T10:39:01.293Z,61.92
2023-11-13T10:41:34.886Z,62.10
2023-11-13T10:44:20.786Z,61.97
2023-11-13T10:46:48.373Z,62.16
2023-11-13T10:49:16.658Z,61.99
2023-11-13T10:51:48.188Z,61.93
2023-11-13T10:54:16.710Z,62.05
2023-11-13T10:56:50.076Z,62.18
2023-11-13T10:59:17.594Z,62.03
2023-11-13T11:01:45.517Z,62.13
2023-11-13T11:04:14.198Z,61.81
2023-11-13T11:06:42.617Z,62.01
2023-11-13T11:09:14.471Z,61.95
2023-11-13T11:11:42.272Z,62.06
2023-11-13T11:14:20.232Z,62.15
2023-11-13T11:16:50.303Z,62.11
2023-11-13T11:19:21.807Z,62.14
2023-11-13T11:21:59.266Z,62.01
2023-11-13T11:24:30.220Z,62.06
2023-11-13T11:26:59.953Z,62.12
2023-11-13T11:29:38.787Z,62.06
2023-11-13T11:32:14.996Z,62.15
2023-11-13T11:34:43.641Z,61.97
2023-11-13T11:37:12.127Z,62.07
2023-11-13T11:39:46.513Z,62.11
2023-11-13T11:42:17.748Z,61.91
2023-11-13T11:44:59.999Z,62.09
2023-11-13T11:47:29.159Z,62.00
2023-11-13T11:49:58.714Z,62.09
2023-11-13T11:52:43.039Z,62.14
2023-11-13T11:55:13.793Z,62.10
2023-11-13T11:57:45.623Z,62.35
2023-11-13T12:00:20.364Z,62.04
2023-11-13T12:02:48.271Z,62.08
2023-11-13T12:05:16.410Z,62.21
2023-11-13T12:07:44.065Z,62.27
2023-11-13T12:10:12.080Z,62.24
2023-11-13T12:12:40.231Z,62.23
2023-11-13T12:15:08.726Z,62.31
2023-11-13T12:17:38.644Z,62.20
2023-11-13T12:20:17.752Z,62.22
2023-11-13T12:22:49.116Z,62.17
2023-11-13T12:25:16.953Z,62.24
2023-11-13T12:27:47.410Z,62.36
2023-11-13T12:30:17.593Z,62.27
2023-11-13T12:32:47.345Z,62.30
2023-11-13T12:35:18.258Z,62.43
2023-11-13T12:37:46.413Z,62.40
2023-11-13T12:40:14.455Z,62.43
2023-11-13T12:42:42.029Z,62.34
2023-11-13T12:45:13.805Z,62.39
2023-11-13T12:47:46.795Z,62.27
2023-11-13T12:50:14.752Z,62.30
2023-11-13T12:52:43.907Z,62.45
2023-11-13T12:55:15.053Z,62.46
2023-11-13T12:57:44.314Z,62.38
2023-11-13T13:00:16.690Z,62.45
2023-11-13T13:02:48.174Z,62.45
2023-11-13T13:05:26.015Z,62.50
2023-11-13T13:07:58.192Z,62.41
2023-11-13T13:10:25.742Z,62.34
2023-11-13T13:12:53.314Z,62.41
2023-11-13T13:15:22.364Z,62.41
2023-11-13T13:17:52.010Z,62.41
2023-11-13T13:20:20.906Z,62.40
2023-11-13T13:22:49.499Z,62.32
2023-11-13T13:25:18.383Z,62.62
2023-11-13T13:27:46.476Z,62.52
2023-11-13T13:30:15.165Z,62.66
2023-11-13T13:32:42.880Z,62.67
2023-11-13T13:35:12.594Z,62.42
2023-11-13T13:37:40.210Z,62.54
2023-11-13T13:40:11.248Z,62.62
2023-11-13T13:42:41.392Z,62.58
2023-11-13T13:45:10.749Z,62.64
2023-11-13T13:47:39.436Z,62.69
2023-11-13T13:50:11.303Z,62.66
2023-11-13T13:52:41.800Z,62.73
2023-11-13T13:55:11.788Z,62.66
2023-11-13T13:57:40.762Z,62.65
2023-11-13T14:00:14.294Z,62.57
2023-11-13T14:02:46.261Z,62.77
2023-11-13T14:05:15.692Z,62.74
2023-11-13T14:07:44.614Z,62.76
2023-11-13T14:10:13.169Z,62.64
2023-11-13T14:12:40.703Z,62.70
2023-11-13T14:15:11.873Z,62.49
2023-11-13T14:17:41.120Z,62.74
2023-11-13T14:20:15.390Z,62.75
2023-11-13T14:22:50.011Z,62.73
2023-11-13T14:25:19.271Z,62.76
2023-11-13T14:27:52.183Z,62.77
2023-11-13T14:30:21.655Z,62.75
2023-11-13T14:32:49.316Z,62.63
2023-11-13T14:35:18.227Z,62.71
2023-11-13T14:37:48.443Z,62.71
2023-11-13T14:40:17.246Z,62.78
2023-11-13T14:42:45.681Z,62.83
2023-11-13T14:45:13.895Z,62.71
2023-11-13T14:47:41.794Z,62.61
2023-11-13T14:50:10.277Z,62.72
2023-11-13T14:52:40.966Z,62.80
2023-11-13T14:55:10.598Z,62.73
2023-11-13T14:57:38.166Z,62.66
2023-11-13T15:00:07.490Z,62.71
2023-11-13T15:02:35.106Z,63.00
2023-11-13T15:05:04.432Z,62.71
2023-11-13T15:07:34.073Z,62.76
2023-11-13T15:10:01.644Z,62.77
2023-11-13T15:12:30.466Z,62.82
2023-11-13T15:15:01.388Z,62.75
2023-11-13T15:17:29.071Z,62.86
2023-11-13T15:19:56.707Z,62.94
2023-11-13T15:22:24.936Z,62.79
2023-11-13T15:24:52.514Z,62.88
2023-11-13T15:27:20.551Z,62.78
2023-11-13T15:29:49.413Z,63.08
2023-11-13T15:32:17.526Z,62.74
2023-11-13T15:34:45.661Z,63.07
2023-11-13T15:37:13.237Z,62.88
2023-11-13T15:39:40.869Z,62.95
2023-11-13T15:42:10.682Z,62.97
2023-11-13T15:44:38.355Z,62.99
2023-11-13T15:47:09.284Z,62.96
2023-11-13T15:49:37.128Z,63.02
2023-11-13T15:52:05.327Z,62.89
2023-11-13T15:54:32.903Z,62.86
2023-11-13T15:57:02.462Z,62.92
2023-11-13T15:59:30.756Z,63.01
2023-11-13T16:02:03.938Z,62.94
2023-11-13T16:04:33.785Z,63.06
2023-11-13T16:07:02.496Z,63.01
2023-11-13T16:09:30.121Z,62.93
2023-11-13T16:11:58.476Z,62.97
2023-11-13T16:14:25.965Z,63.09
2023-11-13T16:16:53.527Z,63.07
2023-11-13T16:19:21.111Z,63.04
2023-11-13T16:21:49.951Z,63.00
2023-11-13T16:24:17.654Z,63.12
2023-11-13T16:26:46.897Z,63.14
2023-11-13T16:29:14.849Z,63.10
2023-11-13T16:31:43.238Z,62.94
2023-11-13T16:34:13.083Z,62.94
2023-11-13T16:36:40.684Z,63.29
2023-11-13T16:39:10.110Z,63.02
2023-11-13T16:41:38.541Z,62.94
2023-11-13T16:44:06.301Z,63.11
2023-11-13T16:46:34.529Z,63.00
2023-11-13T16:49:04.241Z,63.15
2023-11-13T16:51:32.319Z,63.05
2023-11-13T16:53:59.805Z,63.07
2023-11-13T16:56:29.404Z,63.03
2023-11-13T16:58:57.061Z,63.11
2023-11-13T17:01:26.420Z,63.16
2023-11-13T17:03:54.113Z,63.25
2023-11-13T17:06:21.585Z,63.24
2023-11-13T17:08:49.281Z,63.21
2023-11-13T17:11:18.012Z,63.14
2023-11-13T17:13:47.140Z,63.21
2023-11-13T17:16:15.226Z,63.12
2023-11-13T17:18:43.094Z,63.34
2023-11-13T17:21:10.608Z,63.13
2023-11-13T17:23:38.102Z,63.19
2023-11-13T17:26:06.203Z,63.21
2023-11-13T17:28:35.368Z,63.20
2023-11-13T17:31:04.714Z,63.18
2023-11-13T17:33:32.307Z,63.10
2023-11-13T17:35:59.765Z,63.53
2023-11-13T17:38:27.375Z,63.33
2023-11-13T17:40:54.993Z,63.16
2023-11-13T17:43:22.518Z,63.25
2023-11-13T17:45:50.013Z,63.14
2023-11-13T17:48:18.914Z,63.17
2023-11-13T17:50:46.465Z,63.29
2023-11-13T17:53:14.633Z,63.25
2023-11-13T17:55:42.263Z,63.32
2023-11-13T17:58:10.303Z,63.31
2023-11-13T18:00:38.228Z,63.28
2023-11-13T18:03:05.780Z,63.07
2023-11-13T18:05:34.698Z,63.35
2023-11-13T18:08:02.189Z,63.19
2023-11-13T18:10:29.804Z,63.29
2023-11-13T18:12:57.331Z,63.30
2023-11-13T18:15:26.137Z,63.37
2023-11-13T18:17:54.073Z,63.28
2023-11-13T18:20:21.984Z,63.34
2023-11-13T18:22:51.026Z,63.27
2023-11-13T18:25:19.294Z,63.42
2023-11-13T18:27:47.136Z,63.33
2023-11-13T18:30:15.185Z,63.33
2023-11-13T18:32:43.089Z,63.52
2023-11-13T18:35:10.796Z,63.43
2023-11-13T18:37:40.890Z,63.52
2023-11-13T18:40:10.996Z,63.62
2023-11-13T18:42:39.655Z,63.60
2023-11-13T18:45:08.126Z,63.52
2023-11-13T18:47:35.870Z,63.65
2023-11-13T18:50:03.786Z,63.65
2023-11-13T18:52:31.369Z,63.77
2023-11-13T18:54:59.781Z,63.74
2023-11-13T18:57:28.708Z,63.55
2023-11-13T18:59:56.364Z,63.78
2023-11-13T19:02:23.933Z,63.75
2023-11-13T19:04:51.654Z,63.90
2023-11-13T19:07:19.295Z,63.82
2023-11-13T19:09:46.937Z,63.66
2023-11-13T19:12:15.372Z,63.62
2023-11-13T19:14:44.238Z,63.85
2023-11-13T19:17:12.187Z,63.72
2023-11-13T19:19:39.747Z,63.47
2023-11-13T19:22:07.268Z,63.75
2023-11-13T19:24:34.878Z,63.82
2023-11-13T19:27:02.973Z,63.76
2023-11-13T19:29:30.743Z,63.79
2023-11-13T19:32:00.872Z,63.76
2023-11-13T19:34:29.249Z,63.81
2023-11-13T19:36:56.893Z,63.63
2023-11-13T19:39:23.485Z,63.82
2023-11-13T19:41:51.050Z,63.92
2023-11-13T19:44:19.291Z,63.56
2023-11-13T19:46:46.811Z,63.73
2023-11-13T19:49:15.658Z,63.72
2023-11-13T19:51:43.209Z,63.69
2023-11-13T19:54:11.025Z,63.78
2023-11-13T19:56:38.612Z,63.81
2023-11-13T19:59:06.725Z,63.77
2023-11-13T20:01:34.220Z,63.80
2023-11-13T20:04:01.898Z,63.79
2023-11-13T20:06:30.778Z,63.79
2023-11-13T20:09:05.292Z,63.66
2023-11-13T20:11:33.414Z,63.75
2023-11-13T20:14:00.918Z,63.78
2023-11-13T20:16:28.784Z,63.71
2023-11-13T20:18:56.639Z,63.84
2023-11-13T20:21:24.233Z,63.82
2023-11-13T20:23:53.086Z,63.94
2023-11-13T20:26:20.640Z,63.84
2023-11-13T20:28:48.124Z,64.10
2023-11-13T20:31:15.651Z,63.96
2023-11-13T20:33:43.160Z,63.96
2023-11-13T20:36:11.469Z,63.87
2023-11-13T20:38:38.928Z,63.89
2023-11-13T20:41:08.453Z,63.93
2023-11-13T20:43:37.499Z,63.99
2023-11-13T20:46:05.166Z,63.95
2023-11-13T20:48:32.879Z,64.01
2023-11-13T20:51:00.387Z,64.21
2023-11-13T20:53:28.301Z,64.09
2023-11-13T20:55:55.870Z,64.01
2023-11-13T20:58:24.313Z,64.11
2023-11-13T21:00:51.956Z,64.13
2023-11-13T21:03:20.011Z,64.21
2023-11-13T21:05:56.119Z,64.32
2023-11-13T21:08:30.630Z,64.11
2023-11-13T21:10:59.012Z,64.26
2023-11-13T21:13:27.890Z,64.16
2023-11-13T21:15:57.038Z,63.90
2023-11-13T21:18:24.741Z,64.11
2023-11-13T21:20:54.306Z,64.28
2023-11-13T21:23:21.969Z,64.12
2023-11-13T21:25:51.633Z,64.11
2023-11-13T21:28:19.464Z,64.08
2023-11-13T21:30:50.651Z,64.11
2023-11-13T21:33:20.242Z,64.13
2023-11-13T21:35:47.747Z,64.22
2023-11-13T21:38:15.242Z,64.22
2023-11-13T21:40:43.609Z,64.06
2023-11-13T21:43:11.561Z,64.18
2023-11-13T21:45:39.321Z,64.24
2023-11-13T21:48:09.261Z,64.10
2023-11-13T21:50:36.795Z,64.13
2023-11-13T21:53:04.342Z,64.05
2023-11-13T21:55:31.874Z,64.04
2023-11-13T21:58:01.390Z,64.18
2023-11-13T22:00:29.172Z,64.10
2023-11-13T22:02:57.165Z,64.13
2023-11-13T22:05:29.198Z,64.22
2023-11-13T22:07:56.711Z,64.14
2023-11-13T22:10:24.490Z,64.20
2023-11-13T22:12:53.145Z,64.17
2023-11-13T22:15:22.654Z,64.20
2023-11-13T22:17:50.411Z,64.30
2023-11-13T22:20:21.765Z,64.31
2023-11-13T22:22:52.002Z,64.33
2023-11-13T22:25:20.436Z,64.30
2023-11-13T22:27:47.949Z,64.31
2023-11-13T22:30:15.513Z,64.34
2023-11-13T22:32:43.085Z,64.23
2023-11-13T22:35:11.610Z,64.26
2023-11-13T22:37:39.353Z,64.32
2023-11-13T22:40:10.721Z,63.95
2023-11-13T22:42:38.278Z,64.28
2023-11-13T22:45:06.451Z,64.31
2023-11-13T22:47:34.084Z,64.24
2023-11-13T22:50:01.720Z,64.23
2023-11-13T22:52:29.389Z,64.16
2023-11-13T22:54:57.202Z,64.32
2023-11-13T22:57:26.310Z,64.28
2023-11-13T22:59:53.865Z,64.06
2023-11-13T23:02:23.360Z,64.20
2023-11-13T23:04:51.655Z,64.30
2023-11-13T23:07:19.324Z,64.24
2023-11-13T23:09:47.432Z,64.15
2023-11-13T23:12:16.673Z,64.13
2023-11-13T23:14:48.898Z,64.35
2023-11-13T23:17:17.041Z,64.28
2023-11-13T23:19:44.880Z,64.00
2023-11-13T23:22:13.785Z,64.13
2023-11-13T23:24:41.604Z,64.07
2023-11-13T23:27:10.064Z,64.12
2023-11-13T23:29:38.333Z,64.30
2023-11-13T23:32:07.969Z,64.24
2023-11-13T23:34:36.184Z,64.25
2023-11-13T23:37:04.033Z,64.31
2023-11-13T23:39:31.742Z,64.41
2023-11-13T23:41:59.257Z,64.38
2023-11-13T23:44:27.039Z,64.21
2023-11-13T23:46:54.775Z,64.32
2023-11-13T23:49:24.209Z,64.24
2023-11-13T23:51:52.412Z,64.47
2023-11-13T23:54:20.241Z,64.44
2023-11-13T23:56:48.088Z,64.30
2023-11-13T23:59:15.836Z,64.33
